Time;durP1;ratioP1;P1;durP2;ratioP2;P2;SDS_P1;SDS_P2;PMS_P1;PMS_P2;Temp;Humidity;BMP_temperature;BMP_pressure;BME280_temperature;BME280_humidity;BME280_pressure;Samples;Min_cycle;Max_cycle;Signal;HPM_P1;HPM_P2
2023/05/04 00:01:37;;;;;;;10.40;4.80;;;;;;;15.27;100.00;100156.75;5055727;28;20037;-75
2023/05/04 00:04:03;;;;;;;6.57;4.57;;;;;;;15.26;100.00;100153.09;5041450;28;20037;-76
2023/05/04 00:06:28;;;;;;;8.38;4.55;;;;;;;15.26;100.00;100155.88;5056595;28;20374;-76
2023/05/04 00:08:53;;;;;;;5.80;4.15;;;;;;;15.30;100.00;100162.47;5015771;28;20021;-76
2023/05/04 00:11:19;;;;;;;6.70;4.55;;;;;;;15.26;100.00;100155.06;5021391;28;20090;-76
2023/05/04 00:13:44;;;;;;;7.60;4.40;;;;;;;15.25;100.00;100164.63;5037486;28;20492;-76
2023/05/04 00:16:10;;;;;;;8.43;4.53;;;;;;;15.23;100.00;100150.16;5059871;28;20040;-76
2023/05/04 00:18:35;;;;;;;7.13;4.38;;;;;;;15.19;100.00;100156.41;5059058;28;20033;-76
2023/05/04 00:21:01;;;;;;;8.60;4.43;;;;;;;15.19;100.00;100156.41;5045266;28;20487;-76
2023/05/04 00:23:26;;;;;;;6.40;4.35;;;;;;;15.19;100.00;100155.59;5019222;28;20029;-75
2023/05/04 00:25:52;;;;;;;12.02;4.40;;;;;;;15.16;100.00;100157.09;5028548;28;20090;-75
2023/05/04 00:28:17;;;;;;;6.72;4.50;;;;;;;15.15;100.00;100149.03;5025426;28;20493;-76
2023/05/04 00:30:42;;;;;;;6.70;4.57;;;;;;;15.13;100.00;100140.16;5045249;28;20029;-76
2023/05/04 00:33:08;;;;;;;7.88;4.78;;;;;;;15.10;100.00;100138.00;5058399;28;20056;-76
2023/05/04 00:35:33;;;;;;;7.70;4.65;;;;;;;15.07;100.00;100119.94;5044450;28;20037;-76
2023/05/04 00:38:02;;;;;;;6.25;3.97;;;;;;;15.05;100.00;100110.25;5045106;28;20036;-76
2023/05/04 00:40:27;;;;;;;7.43;4.28;;;;;;;15.04;100.00;100103.00;5061587;28;20469;-76
2023/05/04 00:42:53;;;;;;;6.05;4.30;;;;;;;15.00;100.00;100113.22;5058652;28;20033;-76
2023/05/04 00:45:18;;;;;;;7.68;4.53;;;;;;;14.98;100.00;100116.31;5061427;28;20032;-76
2023/05/04 00:47:44;;;;;;;7.10;4.50;;;;;;;14.96;100.00;100113.06;5035699;28;20036;-76
2023/05/04 00:50:10;;;;;;;7.13;4.40;;;;;;;14.95;100.00;100103.03;5074795;28;20040;-76
2023/05/04 00:52:35;;;;;;;6.80;4.65;;;;;;;14.93;100.00;100097.78;5041337;28;20044;-76
2023/05/04 00:55:01;;;;;;;6.68;4.10;;;;;;;14.92;100.00;100096.13;5058167;28;20097;-75
2023/05/04 00:57:26;;;;;;;5.78;4.30;;;;;;;14.91;100.00;100088.91;5061583;28;20024;-76
2023/05/04 00:59:52;;;;;;;7.75;4.05;;;;;;;14.87;100.00;100092.69;5044435;28;20032;-76
2023/05/04 01:02:19;;;;;;;7.30;4.22;;;;;;;14.86;100.00;100088.25;5034562;28;20580;-76
2023/05/04 01:04:45;;;;;;;9.05;4.78;;;;;;;14.85;100.00;100081.84;5056138;28;20079;-76
2023/05/04 01:07:29;;;;;;;5.30;3.92;;;;;;;14.80;100.00;100076.44;5032614;28;20029;-76
2023/05/04 01:10:10;;;;;;;7.32;4.28;;;;;;;14.75;100.00;100068.22;5058580;28;20056;-76
2023/05/04 01:12:41;;;;;;;7.00;4.30;;;;;;;14.73;100.00;100059.34;5024638;28;20059;-76
2023/05/04 01:15:08;;;;;;;8.95;4.90;;;;;;;14.66;100.00;100047.88;5048363;28;20028;-76
2023/05/04 01:17:33;;;;;;;6.50;4.38;;;;;;;14.67;100.00;100049.50;5058086;28;20029;-76
2023/05/04 01:19:59;;;;;;;7.57;3.95;;;;;;;14.63;100.00;100045.75;5077705;28;20039;-76
2023/05/04 01:22:25;;;;;;;7.65;4.60;;;;;;;14.59;100.00;100039.97;5060625;28;20033;-75
2023/05/04 01:24:50;;;;;;;8.32;4.45;;;;;;;14.57;100.00;100030.28;5077543;28;20020;-76
2023/05/04 01:27:25;;;;;;;6.45;4.40;;;;;;;14.51;100.00;100024.84;5057139;28;20033;-76
2023/05/04 01:29:58;;;;;;;9.63;5.15;;;;;;;14.50;100.00;100016.78;5041028;28;20031;-76
2023/05/04 01:32:23;;;;;;;;;;;;;;;14.48;100.00;100014.31;5057222;28;20146;-75
2023/05/04 01:34:48;;;;;;;9.25;4.40;;;;;;;14.45;100.00;100012.19;5077670;28;19935;-75
2023/05/04 01:37:14;;;;;;;7.05;4.35;;;;;;;14.45;100.00;100006.59;5030523;28;20021;-76
2023/05/04 01:39:40;;;;;;;9.27;4.45;;;;;;;14.46;100.00;100011.06;5051101;28;20171;-76
2023/05/04 01:42:06;;;;;;;6.45;4.68;;;;;;;14.44;100.00;100002.19;5056773;28;20028;-76
2023/05/04 01:44:31;;;;;;;7.80;4.25;;;;;;;14.41;100.00;99986.09;5060444;28;20031;-75
2023/05/04 01:46:57;;;;;;;7.28;4.30;;;;;;;14.41;100.00;99988.88;5043294;28;20098;-76
2023/05/04 01:49:22;;;;;;;8.35;4.40;;;;;;;14.37;100.00;99995.44;5040420;28;20094;-76
2023/05/04 01:51:48;;;;;;;9.07;4.32;;;;;;;14.39;100.00;99988.38;5056516;28;20043;-76
2023/05/04 01:54:14;;;;;;;5.72;4.43;;;;;;;14.38;100.00;99989.53;5060310;28;20020;-76
2023/05/04 01:56:40;;;;;;;6.45;3.85;;;;;;;14.40;100.00;99983.59;5043793;28;20036;-75
2023/05/04 01:59:06;;;;;;;6.45;4.10;;;;;;;14.37;100.00;99990.69;5060450;28;20028;-76
2023/05/04 02:01:31;;;;;;;8.40;4.55;;;;;;;14.37;100.00;99979.50;5042905;28;20056;-75
2023/05/04 02:03:57;;;;;;;9.52;4.50;;;;;;;14.38;100.00;99977.56;5043406;28;20094;-75
2023/05/04 02:06:22;;;;;;;6.22;4.32;;;;;;;14.38;100.00;99978.38;5036282;28;20029;-75
2023/05/04 02:08:48;;;;;;;6.05;4.15;;;;;;;14.36;100.00;99977.88;5039876;28;20420;-75
2023/05/04 02:11:16;;;;;;;5.00;4.18;;;;;;;14.35;100.00;99981.84;5055067;28;20385;-75
2023/05/04 02:13:41;;;;;;;6.45;3.83;;;;;;;14.36;100.00;99982.66;5056250;28;20027;-75
2023/05/04 02:16:07;;;;;;;5.93;4.60;;;;;;;14.36;100.00;99983.47;5059726;28;20389;-76
2023/05/04 02:18:32;;;;;;;5.93;3.90;;;;;;;14.38;100.00;99981.16;5076460;28;20508;-75
2023/05/04 02:20:58;;;;;;;9.27;4.43;;;;;;;14.39;100.00;99981.97;5076266;28;20029;-76
2023/05/04 02:23:23;;;;;;;6.57;4.35;;;;;;;14.37;100.00;99985.09;5042798;28;20027;-76
2023/05/04 02:25:49;;;;;;;5.70;4.07;;;;;;;14.37;100.00;99987.88;5059861;28;20028;-75
2023/05/04 02:28:14;;;;;;;6.45;4.32;;;;;;;14.37;100.00;99987.06;5043022;28;20508;-76
2023/05/04 02:30:40;;;;;;;7.03;4.22;;;;;;;14.37;100.00;99993.47;5025274;28;20029;-75
2023/05/04 02:33:06;;;;;;;8.55;4.13;;;;;;;14.39;100.00;99998.75;5056284;28;20505;-75
2023/05/04 02:35:31;;;;;;;9.05;4.10;;;;;;;14.34;100.00;99996.94;5042772;28;20051;-75
2023/05/04 02:37:57;;;;;;;6.03;4.10;;;;;;;14.38;100.00;100008.28;5038507;28;20036;-76
2023/05/04 02:40:22;;;;;;;6.15;3.75;;;;;;;14.39;100.00;100007.13;5037561;28;20032;-75
2023/05/04 02:42:48;;;;;;;4.38;3.70;;;;;;;14.37;100.00;100001.84;5026248;28;20020;-76
2023/05/04 02:45:13;;;;;;;6.07;4.00;;;;;;;14.35;100.00;99998.59;5059253;28;20035;-76
2023/05/04 02:47:39;;;;;;;4.32;3.60;;;;;;;14.34;100.00;99984.94;5059428;28;20036;-76
2023/05/04 02:50:05;;;;;;;7.80;4.00;;;;;;;14.34;100.00;99982.16;5025552;28;20047;-75
2023/05/04 02:52:30;;;;;;;5.25;3.83;;;;;;;14.32;100.00;99968.53;5075626;28;20127;-76
2023/05/04 02:54:56;;;;;;;6.95;4.25;;;;;;;14.32;100.00;99971.31;5075755;28;20024;-76
2023/05/04 02:57:21;;;;;;;5.47;3.50;;;;;;;14.31;100.00;99973.28;5017075;28;20041;-76
2023/05/04 02:59:47;;;;;;;7.18;3.95;;;;;;;14.30;100.00;99970.84;5021885;28;20536;-76
2023/05/04 03:02:12;;;;;;;5.05;3.80;;;;;;;14.30;100.00;99968.03;5058866;28;20049;-75
2023/05/04 03:04:38;;;;;;;6.93;3.83;;;;;;;14.27;100.00;99963.13;5058107;28;20032;-76
2023/05/04 03:07:03;;;;;;;5.85;4.38;;;;;;;14.25;100.00;99959.84;5054300;28;20071;-76
2023/05/04 03:09:29;;;;;;;8.43;4.28;;;;;;;14.21;100.00;99953.28;5058831;28;20027;-76
2023/05/04 03:11:54;;;;;;;4.93;3.53;;;;;;;14.20;100.00;99955.22;5059007;28;20366;-76
2023/05/04 03:14:20;;;;;;;5.30;3.90;;;;;;;14.20;100.00;99946.03;5052049;28;20021;-76
2023/05/04 03:16:45;;;;;;;7.85;3.70;;;;;;;14.15;100.00;99944.25;5042192;28;20712;-75
2023/05/04 03:19:11;;;;;;;4.43;3.65;;;;;;;14.12;100.00;99938.50;5039748;28;20032;-76
2023/05/04 03:21:36;;;;;;;7.32;4.10;;;;;;;14.11;100.00;99937.69;5042159;28;20054;-75
2023/05/04 03:24:02;;;;;;;4.95;3.50;;;;;;;14.09;100.00;99926.84;5058548;28;20047;-76
2023/05/04 03:26:28;;;;;;;5.60;3.85;;;;;;;14.08;100.00;99919.63;5041903;28;20024;-76
2023/05/04 03:28:53;;;;;;;4.93;3.78;;;;;;;14.04;100.00;99924.25;5039331;28;20025;-75
2023/05/04 03:31:19;;;;;;;6.75;3.88;;;;;;;14.00;100.00;99920.47;5009687;28;20082;-76
2023/05/04 03:33:44;;;;;;;5.57;4.00;;;;;;;13.99;100.00;99912.44;5069214;28;20032;-76
2023/05/04 03:36:10;;;;;;;6.70;3.80;;;;;;;13.97;100.00;99909.94;5025385;28;20024;-76
2023/05/04 03:38:35;;;;;;;5.30;3.95;;;;;;;13.95;100.00;99901.09;5058422;28;20043;-76
2023/05/04 03:41:01;;;;;;;6.53;3.75;;;;;;;13.98;100.00;99906.00;5038705;28;20508;-76
2023/05/04 03:43:26;;;;;;;5.88;3.67;;;;;;;13.99;100.00;99902.06;5068994;28;20036;-76
2023/05/04 03:45:52;;;;;;;6.50;3.85;;;;;;;13.98;100.00;99900.41;5034580;28;20025;-76
2023/05/04 03:48:17;;;;;;;7.72;3.67;;;;;;;14.00;100.00;99892.53;5036270;28;20028;-76
2023/05/04 03:50:43;;;;;;;8.13;4.03;;;;;;;13.99;100.00;99899.28;5058237;28;20027;-75
2023/05/04 03:53:08;;;;;;;5.18;3.92;;;;;;;13.99;100.00;99890.91;5057978;28;20025;-75
2023/05/04 03:55:34;;;;;;;6.68;4.03;;;;;;;14.00;100.00;99877.75;5038630;28;20025;-76
2023/05/04 03:58:00;;;;;;;8.77;4.18;;;;;;;14.01;100.00;99871.03;5052619;28;20029;-76
2023/05/04 04:00:26;;;;;;;6.20;4.00;;;;;;;14.03;100.00;99896.63;5058289;28;20043;-76
2023/05/04 04:02:51;;;;;;;6.43;4.10;;;;;;;14.03;100.00;99905.84;5058073;28;20052;-75
2023/05/04 04:05:17;;;;;;;6.40;3.90;;;;;;;14.04;100.00;99909.44;5034412;28;20028;-75
2023/05/04 04:07:42;;;;;;;6.57;3.72;;;;;;;14.05;100.00;99914.69;5058029;28;20033;-75
2023/05/04 04:10:08;;;;;;;5.47;3.80;;;;;;;14.04;100.00;99904.69;5022547;28;20032;-76
2023/05/04 04:12:34;;;;;;;5.00;3.80;;;;;;;14.05;100.00;99911.91;5034249;28;20035;-76
2023/05/04 04:15:00;;;;;;;4.53;3.70;;;;;;;14.05;100.00;99911.91;5057953;28;20385;-76
2023/05/04 04:17:25;;;;;;;5.38;3.58;;;;;;;14.06;100.00;99927.50;5028850;28;20025;-76
2023/05/04 04:19:51;;;;;;;7.55;3.95;;;;;;;14.08;100.00;99928.00;5074622;28;20502;-75
2023/05/04 04:22:16;;;;;;;4.80;3.60;;;;;;;14.07;100.00;99933.94;5057744;28;20032;-76
2023/05/04 04:24:41;;;;;;;5.43;3.50;;;;;;;14.06;100.00;99944.25;5058017;28;20385;-76
2023/05/04 04:27:07;;;;;;;4.78;3.60;;;;;;;14.06;100.00;99947.03;5041272;28;20025;-76
2023/05/04 04:29:34;;;;;;;5.10;4.00;;;;;;;14.06;100.00;99941.47;5051454;28;20033;-76
2023/05/04 04:32:01;;;;;;;8.43;3.90;;;;;;;14.11;100.00;99936.88;5025367;28;20534;-75
2023/05/04 04:34:26;;;;;;;6.50;3.92;;;;;;;14.07;100.00;99940.31;5037999;28;20107;-76
2023/05/04 04:36:52;;;;;;;6.00;4.00;;;;;;;14.09;100.00;99939.97;5022130;28;20036;-76
2023/05/04 04:39:17;;;;;;;5.75;3.70;;;;;;;14.13;100.00;99940.16;5057692;28;20032;-76
2023/05/04 04:41:43;;;;;;;5.07;3.72;;;;;;;14.11;100.00;99939.66;5054943;28;20037;-76
2023/05/04 04:44:09;;;;;;;7.15;3.53;;;;;;;14.10;100.00;99938.84;5041157;28;20037;-75
2023/05/04 04:46:34;;;;;;;6.18;3.85;;;;;;;14.11;100.00;99945.25;5027943;28;20029;-76
2023/05/04 04:49:00;;;;;;;4.85;3.60;;;;;;;14.09;100.00;99938.00;5041153;28;20365;-76
2023/05/04 04:51:25;;;;;;;8.20;3.90;;;;;;;14.08;100.00;99953.13;5074374;28;20036;-76
2023/05/04 04:53:51;;;;;;;5.60;3.92;;;;;;;14.11;100.00;99967.59;5033693;28;20025;-76
2023/05/04 04:56:17;;;;;;;4.03;3.38;;;;;;;14.11;100.00;99987.13;5068242;28;20036;-76
2023/05/04 04:58:43;;;;;;;6.90;3.55;;;;;;;14.08;100.00;99986.63;5034085;28;20032;-76
2023/05/04 05:01:09;;;;;;;4.40;3.70;;;;;;;14.04;100.00;100008.00;5032957;28;20048;-76
2023/05/04 05:03:35;;;;;;;7.88;4.22;;;;;;;14.05;100.00;99987.28;5028409;28;20033;-76
2023/05/04 05:06:01;;;;;;;5.50;4.00;;;;;;;14.04;100.00;99991.25;5034046;28;20036;-75
2023/05/04 05:08:26;;;;;;;5.78;3.92;;;;;;;14.06;100.00;99979.72;5041175;28;20041;-76
2023/05/04 05:10:52;;;;;;;5.68;4.18;;;;;;;14.04;100.00;99982.88;5027945;28;20489;-75
2023/05/04 05:13:17;;;;;;;5.18;4.07;;;;;;;14.06;100.00;99974.97;5040932;28;20039;-76
2023/05/04 05:15:43;;;;;;;9.43;3.95;;;;;;;14.06;100.00;99969.38;5059791;28;20025;-76
2023/05/04 05:18:08;;;;;;;5.10;3.80;;;;;;;14.04;100.00;99985.66;5040921;28;20485;-76
2023/05/04 05:20:33;;;;;;;5.63;4.43;;;;;;;14.03;100.00;99992.38;5044300;28;20039;-76
2023/05/04 05:22:59;;;;;;;4.82;3.90;;;;;;;14.06;100.00;99994.50;5055061;28;20381;-76
2023/05/04 05:25:24;;;;;;;8.07;4.53;;;;;;;14.06;100.00;99954.59;5061120;28;20040;-75
2023/05/04 05:27:51;;;;;;;7.78;4.60;;;;;;;14.03;100.00;99938.53;5060752;28;20074;-76
2023/05/04 05:30:16;;;;;;;8.52;4.18;;;;;;;14.03;100.00;99941.31;5061180;28;20050;-76
2023/05/04 05:32:42;;;;;;;6.97;4.40;;;;;;;14.02;100.00;99909.78;5060998;28;20029;-76
2023/05/04 05:35:08;;;;;;;4.55;3.90;;;;;;;14.02;100.00;99929.31;5077351;28;20086;-76
2023/05/04 05:37:34;;;;;;;5.82;3.80;;;;;;;14.04;100.00;99928.97;5060365;28;20078;-76
2023/05/04 05:39:59;;;;;;;6.38;3.97;;;;;;;14.05;100.00;99911.09;5057342;28;20029;-76
2023/05/04 05:42:24;;;;;;;4.53;3.80;;;;;;;14.09;100.00;99945.56;5024014;28;20075;-76
2023/05/04 05:44:50;;;;;;;4.97;3.80;;;;;;;14.09;100.00;99951.97;5060482;28;20029;-76
2023/05/04 05:47:16;;;;;;;5.93;3.78;;;;;;;14.12;100.00;99983.19;5060470;28;20024;-76
2023/05/04 05:49:41;;;;;;;5.80;4.25;;;;;;;14.16;100.00;100006.50;5077118;28;20111;-76
2023/05/04 05:52:07;;;;;;;6.63;3.70;;;;;;;14.18;100.00;99990.22;5043626;28;20033;-76
2023/05/04 05:54:33;;;;;;;6.50;4.15;;;;;;;14.19;100.00;100008.63;5030870;28;20028;-76
2023/05/04 05:56:58;;;;;;;6.00;4.30;;;;;;;14.21;100.00;99998.78;5043430;28;20063;-76
2023/05/04 05:59:24;;;;;;;7.20;3.85;;;;;;;14.24;100.00;100009.28;5060561;28;20103;-76
2023/05/04 06:01:50;;;;;;;8.23;4.32;;;;;;;14.27;100.00;100019.78;5059977;28;20052;-76
2023/05/04 06:04:16;;;;;;;6.05;4.28;;;;;;;14.29;100.00;100023.09;5043616;28;20063;-76
2023/05/04 06:06:42;;;;;;;7.50;4.20;;;;;;;14.28;100.00;100023.41;5072795;28;20037;-76
2023/05/04 06:09:07;;;;;;;6.00;4.13;;;;;;;14.33;100.00;99992.50;5056780;28;20029;-76
2023/05/04 06:11:33;;;;;;;6.78;4.85;;;;;;;14.34;100.00;100016.50;5076660;28;20081;-76
2023/05/04 06:13:58;;;;;;;5.88;4.57;;;;;;;14.36;100.00;100003.03;5055709;28;20473;-76
2023/05/04 06:16:24;;;;;;;8.18;4.47;;;;;;;14.37;100.00;99985.09;5059878;28;20050;-76
2023/05/04 06:18:50;;;;;;;10.02;4.03;;;;;;;14.38;100.00;99981.16;5043525;28;20040;-76
2023/05/04 06:21:16;;;;;;;5.78;3.83;;;;;;;14.41;100.00;100019.59;5025764;28;20033;-76
2023/05/04 06:23:41;;;;;;;5.90;4.65;;;;;;;14.40;100.00;100031.94;5030730;28;20036;-77
2023/05/04 06:26:07;;;;;;;6.28;4.60;;;;;;;14.42;100.00;100015.66;5074328;28;20028;-77
2023/05/04 06:28:33;;;;;;;7.60;4.75;;;;;;;14.39;100.00;100010.72;5056403;28;20033;-77
2023/05/04 06:30:58;;;;;;;7.75;4.72;;;;;;;14.43;100.00;99997.75;5042252;28;20053;-77
2023/05/04 06:33:24;;;;;;;7.18;4.55;;;;;;;14.40;100.00;99995.63;5043053;28;20032;-77
2023/05/04 06:35:51;;;;;;;8.13;5.00;;;;;;;14.39;100.00;99988.38;5059272;28;20021;-77
2023/05/04 06:38:16;;;;;;;6.90;4.68;;;;;;;14.37;100.00;100010.22;5059304;28;20077;-77
2023/05/04 06:40:41;;;;;;;5.80;4.38;;;;;;;14.33;100.00;100065.13;5059277;28;20028;-77
2023/05/04 06:43:07;;;;;;;7.07;4.88;;;;;;;14.28;100.00;100029.81;5059749;28;20034;-77
2023/05/04 06:45:34;;;;;;;7.90;5.40;;;;;;;14.23;100.00;100007.63;5042852;28;20025;-77
2023/05/04 06:47:59;;;;;;;5.32;4.10;;;;;;;14.23;100.00;100045.91;5039319;28;20501;-77
2023/05/04 06:50:25;;;;;;;7.22;4.30;;;;;;;14.16;100.00;100060.38;5041328;28;20101;-77
2023/05/04 06:52:51;;;;;;;8.40;5.10;;;;;;;14.17;100.00;100052.81;5059048;28;20032;-77
2023/05/04 06:55:16;;;;;;;6.85;4.53;;;;;;;14.14;100.00;100064.66;5042408;28;20036;-77
2023/05/04 06:57:42;;;;;;;7.55;5.05;;;;;;;14.05;100.00;100047.91;5059512;28;20096;-77
2023/05/04 07:00:08;;;;;;;6.75;4.55;;;;;;;14.05;100.00;100045.13;5042104;28;20021;-77
2023/05/04 07:02:34;;;;;;;6.15;5.03;;;;;;;14.03;100.00;100031.47;5075748;28;20386;-77
2023/05/04 07:05:01;;;;;;;6.75;5.22;;;;;;;14.02;100.00;100027.03;5055058;28;20032;-77
2023/05/04 07:07:26;;;;;;;10.02;5.15;;;;;;;14.01;100.00;100018.97;5073895;28;20139;-77
2023/05/04 07:09:52;;;;;;;8.15;5.45;;;;;;;13.99;100.00;100015.72;5077108;28;20032;-77
2023/05/04 07:12:17;;;;;;;6.65;5.03;;;;;;;13.97;100.00;99984.50;5048568;28;20056;-78
2023/05/04 07:14:43;;;;;;;7.18;5.20;;;;;;;13.91;100.00;99995.03;5072406;28;20029;-77
2023/05/04 07:17:09;;;;;;;7.35;5.30;;;;;;;13.88;100.00;99987.31;5059050;28;20035;-77
2023/05/04 07:19:35;;;;;;;7.13;5.05;;;;;;;13.89;100.00;99990.91;5075418;28;20028;-77
2023/05/04 07:22:01;;;;;;;10.02;5.40;;;;;;;13.86;100.00;100011.94;5058807;28;20024;-77
2023/05/04 07:24:30;;;;;;;6.38;4.68;;;;;;;13.79;100.00;100037.56;5057995;28;20081;-77
2023/05/04 07:26:55;;;;;;;7.28;4.88;;;;;;;13.80;100.00;100028.03;5076570;28;20085;-77
2023/05/04 07:29:21;;;;;;;6.95;4.80;;;;;;;13.80;100.00;100032.78;5008357;28;20032;-71
2023/05/04 07:31:47;;;;;;;7.28;4.60;;;;;;;13.77;100.00;100044.63;5033772;28;20028;-71
2023/05/04 07:34:12;;;;;;;9.15;5.32;;;;;;;13.79;100.00;100048.72;5058558;28;20029;-71
2023/05/04 07:36:38;;;;;;;6.38;5.15;;;;;;;13.77;100.00;100064.97;5058393;28;20051;-71
2023/05/04 07:39:03;;;;;;;9.15;5.28;;;;;;;13.80;100.00;100046.75;5041622;28;20029;-72
2023/05/04 07:41:29;;;;;;;9.00;4.88;;;;;;;13.81;100.00;100053.97;5075191;28;20082;-75
2023/05/04 07:43:54;;;;;;;9.13;5.40;;;;;;;13.81;100.00;100065.13;5041921;28;20021;-75
2023/05/04 07:46:20;;;;;;;7.03;4.88;;;;;;;13.84;100.00;100050.50;5055266;28;20028;-76
2023/05/04 07:48:45;;;;;;;8.70;4.70;;;;;;;13.83;100.00;100034.94;5022002;28;20080;-75
2023/05/04 07:51:15;;;;;;;7.97;5.47;;;;;;;13.87;100.00;99999.59;5058140;28;20033;-76
2023/05/04 07:53:41;;;;;;;7.03;4.93;;;;;;;13.91;100.00;99972.69;5021633;28;20071;-75
2023/05/04 07:56:11;;;;;;;5.60;4.65;;;;;;;13.95;100.00;99962.50;5058582;28;20028;-75
2023/05/04 07:58:36;;;;;;;7.65;4.90;;;;;;;13.97;100.00;99984.50;5041889;28;20504;-76
2023/05/04 08:01:03;;;;;;;7.93;4.60;;;;;;;14.03;100.00;99999.94;5041429;28;20102;-76
2023/05/04 08:03:29;;;;;;;7.75;5.03;;;;;;;14.09;100.00;100012.56;5045108;28;20070;-76
2023/05/04 08:05:55;;;;;;;7.35;5.53;;;;;;;14.16;100.00;100031.66;5038252;28;20025;-76
2023/05/04 08:08:21;;;;;;;8.25;5.38;;;;;;;14.24;100.00;100062.34;5038157;28;20082;-75
2023/05/04 08:10:46;;;;;;;7.85;5.25;;;;;;;14.30;100.00;100088.16;5058467;28;20056;-75
2023/05/04 08:13:12;;;;;;;8.10;5.90;;;;;;;14.33;100.00;100067.94;5053391;28;20032;-75
2023/05/04 08:15:37;;;;;;;7.05;5.03;;;;;;;14.38;100.00;100075.34;5075933;28;20038;-76
2023/05/04 08:18:03;;;;;;;10.35;5.68;;;;;;;14.43;100.00;100067.59;5041657;28;20443;-75
2023/05/04 08:20:28;;;;;;;6.38;5.00;;;;;;;14.45;100.00;100037.34;5058230;28;20032;-75
2023/05/04 08:22:54;;;;;;;6.45;4.70;;;;;;;14.47;100.00;100040.63;5023568;28;20024;-75
2023/05/04 08:25:21;;;;;;;7.03;4.72;;;;;;;14.50;100.00;100042.75;5037866;28;20029;-76
2023/05/04 08:27:46;;;;;;;6.95;5.50;;;;;;;14.53;100.00;100038.50;5056128;28;20035;-75
2023/05/04 08:30:12;;;;;;;6.80;4.47;;;;;;;14.57;100.00;100041.44;5047253;28;20033;-76
2023/05/04 08:32:37;;;;;;;6.55;4.70;;;;;;;14.62;100.00;100074.81;5040102;28;20507;-76
2023/05/04 08:35:03;;;;;;;6.03;4.38;;;;;;;14.70;100.00;100083.19;5054760;28;20017;-75
2023/05/04 08:37:29;;;;;;;8.07;4.80;;;;;;;14.84;100.00;100077.38;5077166;28;20031;-75
2023/05/04 08:39:55;;;;;;;7.28;4.90;;;;;;;15.01;100.00;100067.31;5078339;28;20040;-75
2023/05/04 08:42:28;;;;;;;7.13;5.15;;;;;;;15.26;100.00;100063.56;5058284;28;20034;-75
2023/05/04 08:44:54;;;;;;;;;;;;;;;15.48;100.00;100062.47;5042509;28;20037;-76
2023/05/04 08:47:19;;;;;;;5.78;4.78;;;;;;;15.74;100.00;100076.38;5044584;28;19931;-75
2023/05/04 08:49:45;;;;;;;8.45;4.90;;;;;;;16.03;100.00;100071.88;5061551;28;20021;-76
2023/05/04 08:52:10;;;;;;;7.53;4.68;;;;;;;16.30;100.00;100053.69;5061246;28;20546;-76
2023/05/04 08:54:38;;;;;;;7.10;4.30;;;;;;;16.54;100.00;100059.34;5028222;28;20029;-73
2023/05/04 08:57:04;;;;;;;11.60;4.85;;;;;;;16.87;100.00;100072.56;5078130;28;20029;-77
2023/05/04 08:59:30;;;;;;;7.93;5.13;;;;;;;17.12;100.00;100073.44;5061361;28;20153;-77
2023/05/04 09:01:57;;;;;;;6.28;4.72;;;;;;;17.38;100.00;100067.50;5044402;28;20063;-77
2023/05/04 09:04:22;;;;;;;9.10;4.97;;;;;;;17.61;100.00;100079.06;5061433;28;20029;-77
2023/05/04 09:06:48;;;;;;;11.40;4.90;;;;;;;17.82;100.00;100084.56;5055553;28;20032;-77
2023/05/04 09:09:13;;;;;;;7.13;4.57;;;;;;;18.02;100.00;100091.19;5041393;28;20032;-77
2023/05/04 09:11:39;;;;;;;9.52;4.30;;;;;;;18.25;100.00;100085.88;5024690;28;20113;-77
2023/05/04 09:14:04;;;;;;;9.75;4.45;;;;;;;18.47;100.00;100092.13;5057133;28;20074;-78
2023/05/04 09:16:34;;;;;;;7.07;4.18;;;;;;;18.74;100.00;100098.94;5027883;28;20472;-79
2023/05/04 09:19:00;;;;;;;8.43;3.90;;;;;;;18.96;100.00;100084.28;5061170;28;20037;-78
2023/05/04 09:21:32;;;;;;;9.00;4.22;;;;;;;19.20;100.00;100096.59;5077765;28;20040;-78
2023/05/04 09:23:58;;;;;;;9.35;4.25;;;;;;;19.51;100.00;100101.38;5060958;28;20033;-76
2023/05/04 09:26:30;;;;;;;7.18;4.00;;;;;;;19.79;100.00;100100.47;5077694;28;20049;-75
2023/05/04 09:28:55;;;;;;;4.80;3.33;;;;;;;20.03;100.00;100105.03;5077482;28;20442;-76
2023/05/04 09:31:22;;;;;;;11.30;3.75;;;;;;;20.25;100.00;100115.63;5066722;28;20331;-74
2023/05/04 09:33:48;;;;;;;6.03;3.40;;;;;;;20.46;100.00;100120.09;5060833;28;20512;-74
2023/05/04 09:36:15;;;;;;;7.82;3.60;;;;;;;20.63;100.00;100128.13;5078484;28;20027;-77
2023/05/04 09:38:40;;;;;;;10.45;3.28;;;;;;;20.82;100.00;100123.69;5058826;28;20029;-76
2023/05/04 09:41:06;;;;;;;6.82;2.85;;;;;;;20.97;100.00;100137.69;5052365;28;20040;-77
2023/05/04 09:43:39;;;;;;;8.50;3.20;;;;;;;21.15;100.00;100138.03;5042644;28;20033;-76
2023/05/04 09:46:05;;;;;;;8.45;2.97;;;;;;;21.28;100.00;100140.66;5058605;28;20039;-77
2023/05/04 09:48:30;;;;;;;9.15;3.47;;;;;;;21.42;100.00;100141.78;5024041;28;20052;-77
2023/05/04 09:50:57;;;;;;;9.38;3.35;;;;;;;21.52;100.00;100139.53;5050919;28;20025;-77
2023/05/04 09:53:24;;;;;;;6.95;3.42;;;;;;;21.55;100.00;100145.22;5074937;28;20033;-77
2023/05/04 09:56:10;;;;;;;7.03;3.10;;;;;;;21.66;100.00;100150.25;5076011;28;20028;-77
2023/05/04 09:58:36;;;;;;;10.85;3.53;;;;;;;21.72;100.00;100148.72;5076677;28;20056;-77
2023/05/04 10:01:01;;;;;;;8.27;3.80;;;;;;;21.75;100.00;100147.97;5056638;28;20464;-77
2023/05/04 10:03:27;;;;;;;6.95;3.10;;;;;;;21.89;100.00;100153.03;5076378;28;20043;-77
2023/05/04 10:05:53;;;;;;;7.28;3.15;;;;;;;22.00;100.00;100154.84;5051223;28;20033;-77
2023/05/04 10:08:18;;;;;;;6.25;3.20;;;;;;;22.15;100.00;100169.19;5056364;28;20108;-77
2023/05/04 10:10:44;;;;;;;4.80;3.15;;;;;;;22.27;100.00;100169.00;5049127;28;20059;-76
2023/05/04 10:13:09;;;;;;;8.32;3.00;;;;;;;22.37;100.00;100179.69;5070115;28;20039;-76
2023/05/04 10:15:37;;;;;;;6.75;2.78;;;;;;;22.43;100.00;100183.81;5077821;28;20431;-76
2023/05/04 10:18:06;;;;;;;5.90;2.80;;;;;;;22.50;100.00;100186.72;5026768;28;20052;-76
2023/05/04 10:21:00;;;;;;;5.68;2.88;;;;;;;22.55;100.00;100190.44;5056441;28;20110;-76
2023/05/04 10:23:51;;;;;;;4.00;2.35;;;;;;;22.55;100.00;100185.56;5066936;28;20028;-76
2023/05/04 10:26:35;;;;;;;6.25;2.67;;;;;;;22.58;100.00;100184.81;5055748;28;20037;-76
2023/05/04 10:29:21;;;;;;;6.60;2.60;;;;;;;22.64;100.00;100182.47;5073066;28;20094;-76
2023/05/04 10:31:46;;;;;;;6.15;2.55;;;;;;;22.70;100.00;100184.56;5076255;28;20025;-76
2023/05/04 10:34:26;;;;;;;5.15;2.60;;;;;;;22.77;100.00;100191.53;5024667;28;20536;-76
2023/05/04 10:36:51;;;;;;;5.90;2.53;;;;;;;22.87;100.00;100194.50;5069259;28;20420;-76
2023/05/04 10:39:20;;;;;;;4.15;2.30;;;;;;;22.98;100.00;100188.97;5077166;28;20032;-76
2023/05/04 10:42:15;;;;;;;5.38;2.50;;;;;;;23.12;100.00;100196.81;5075987;28;20032;-76
2023/05/04 10:44:53;;;;;;;4.93;2.00;;;;;;;23.20;100.00;100187.19;5067962;28;20044;-76
2023/05/04 10:47:31;;;;;;;6.20;1.85;;;;;;;23.29;100.00;100198.22;5075661;28;20116;-76
2023/05/04 10:50:15;;;;;;;3.88;1.65;;;;;;;23.29;100.00;100195.38;5059436;28;20044;-76
2023/05/04 10:52:47;;;;;;;3.97;1.80;;;;;;;23.30;100.00;100194.22;5076830;28;20111;-76
2023/05/04 10:55:13;;;;;;;3.72;1.45;;;;;;;23.30;100.00;100192.19;5076970;28;20032;-75
2023/05/04 10:58:05;;;;;;;3.75;1.63;;;;;;;23.37;100.00;100195.09;5066746;28;20037;-75
2023/05/04 11:00:37;;;;;;;7.28;1.67;;;;;;;23.46;100.00;100183.44;5065149;28;20045;-75
2023/05/04 11:03:03;;;;;;;6.28;1.33;;;;;;;23.56;100.00;100182.72;5075363;28;20079;-76
2023/05/04 11:05:41;;;;;;;2.10;0.80;;;;;;;23.69;100.00;100180.41;5067303;28;20078;-75
2023/05/04 11:08:19;;;;;;;5.22;1.00;;;;;;;23.80;98.63;100180.53;5062807;28;20025;-75
2023/05/04 11:10:46;;;;;;;3.53;0.70;;;;;;;23.87;95.23;100186.25;5068089;28;20028;-75
2023/05/04 11:13:12;;;;;;;1.75;0.50;;;;;;;23.86;92.44;100191.13;5071096;28;20043;-76
2023/05/04 11:15:47;;;;;;;2.35;0.50;;;;;;;23.85;90.13;100194.38;5071459;28;20021;-76
2023/05/04 11:18:13;;;;;;;2.17;0.50;;;;;;;23.82;89.47;100195.97;5067087;28;20062;-75
2023/05/04 11:20:38;;;;;;;3.40;0.70;;;;;;;23.81;94.11;100182.97;5075286;28;20028;-76